createdAt,value
2022-12-15T00:01:42.399Z,77.25
2022-12-15T00:04:03.068Z,77.71
2022-12-15T00:06:24.211Z,78.00
2022-12-15T00:08:45.198Z,77.23
2022-12-15T00:11:06.065Z,78.04
2022-12-15T00:13:29.812Z,78.18
2022-12-15T00:15:51.211Z,77.91
2022-12-15T00:18:13.579Z,77.80
2022-12-15T00:20:35.111Z,77.94
2022-12-15T00:22:56.091Z,78.67
2022-12-15T00:25:17.097Z,77.73
2022-12-15T00:27:38.842Z,77.04
2022-12-15T00:29:59.942Z,77.50
2022-12-15T00:32:20.673Z,77.40
2022-12-15T00:34:42.983Z,77.42
2022-12-15T00:37:03.858Z,77.00
2022-12-15T00:39:07.266Z,78.19
2022-12-15T00:41:10.679Z,78.72
2022-12-15T00:43:14.071Z,77.77
2022-12-15T00:45:17.618Z,78.02
2022-12-15T00:47:20.437Z,78.16
2022-12-15T00:49:43.595Z,78.02
2022-12-15T00:52:04.697Z,77.42
2022-12-15T00:54:25.899Z,77.57
2022-12-15T00:56:47.392Z,77.58
2022-12-15T00:59:08.495Z,79.00
2022-12-15T01:01:29.809Z,78.52
2022-12-15T01:03:50.962Z,77.89
2022-12-15T01:06:13.327Z,77.65
2022-12-15T01:08:34.445Z,77.00
2022-12-15T01:10:55.671Z,77.77
2022-12-15T01:13:16.690Z,76.68
2022-12-15T01:15:37.675Z,77.20
2022-12-15T01:17:58.751Z,77.33
2022-12-15T01:20:14.436Z,76.71
2022-12-15T01:22:19.112Z,76.84
2022-12-15T01:24:22.372Z,77.88
2022-12-15T01:26:25.661Z,77.66
2022-12-15T01:28:29.644Z,78.07
2022-12-15T01:30:32.948Z,77.40
2022-12-15T01:32:36.254Z,77.84
2022-12-15T01:34:39.543Z,77.56
2022-12-15T01:36:42.847Z,77.05
2022-12-15T01:38:53.730Z,77.90
2022-12-15T01:41:00.818Z,77.83
2022-12-15T01:43:04.369Z,78.22
2022-12-15T01:45:50.100Z,79.38
2022-12-15T01:47:54.665Z,79.07
2022-12-15T01:49:57.998Z,78.73
2022-12-15T01:52:06.714Z,79.89
2022-12-15T01:54:15.970Z,79.78
2022-12-15T01:56:20.797Z,79.68
2022-12-15T01:58:24.533Z,79.49
2022-12-15T02:00:28.525Z,78.60
2022-12-15T02:02:38.357Z,79.04
2022-12-15T02:04:43.786Z,79.05
2022-12-15T02:06:47.193Z,78.86
2022-12-15T02:08:54.108Z,78.11
2022-12-15T02:11:24.605Z,79.03
2022-12-15T02:13:36.397Z,78.32
2022-12-15T02:15:48.159Z,78.30
2022-12-15T02:18:05.004Z,78.34
2022-12-15T02:20:49.857Z,78.17
2022-12-15T02:23:13.912Z,78.57
2022-12-15T02:25:42.455Z,79.07
2022-12-15T02:27:56.162Z,80.17
2022-12-15T02:31:09.391Z,81.29
2022-12-15T02:33:22.269Z,80.92
2022-12-15T02:35:31.885Z,81.43
2022-12-15T02:37:37.849Z,82.44
2022-12-15T02:39:41.212Z,83.65
2022-12-15T02:41:46.043Z,82.52
2022-12-15T02:43:49.918Z,83.67
2022-12-15T02:46:05.418Z,84.27
2022-12-15T02:48:20.983Z,84.42
2022-12-15T02:50:35.542Z,84.82
2022-12-15T02:52:51.221Z,85.54
2022-12-15T02:55:10.060Z,85.85
2022-12-15T02:57:21.085Z,84.38
2022-12-15T02:59:34.983Z,85.01
2022-12-15T03:01:44.478Z,84.08
2022-12-15T03:03:49.566Z,84.35
2022-12-15T03:05:54.738Z,83.95
2022-12-15T03:07:58.115Z,83.50
2022-12-15T03:10:04.099Z,83.10
2022-12-15T03:12:08.170Z,83.58
2022-12-15T03:14:11.616Z,82.72
2022-12-15T03:16:15.348Z,83.22
2022-12-15T03:18:20.163Z,83.35
2022-12-15T03:20:26.682Z,83.36
2022-12-15T03:22:29.965Z,83.50
2022-12-15T03:24:33.328Z,83.92
2022-12-15T03:26:36.667Z,83.28
2022-12-15T03:28:39.996Z,83.19
2022-12-15T03:30:43.268Z,82.55
2022-12-15T03:32:48.393Z,82.50
2022-12-15T03:34:53.077Z,83.10
2022-12-15T03:36:56.435Z,82.93
2022-12-15T03:38:59.726Z,83.40
2022-12-15T03:41:03.078Z,83.16
2022-12-15T03:43:06.429Z,83.11
2022-12-15T03:45:10.406Z,82.12
2022-12-15T03:47:13.698Z,82.56
2022-12-15T03:49:17.228Z,81.96
2022-12-15T03:51:22.250Z,81.79
2022-12-15T03:53:25.681Z,81.84
2022-12-15T03:55:29.879Z,81.19
2022-12-15T03:57:33.205Z,82.71
2022-12-15T03:59:36.526Z,82.03
2022-12-15T04:01:47.118Z,81.34
2022-12-15T04:03:52.435Z,82.27
2022-12-15T04:05:58.873Z,80.98
2022-12-15T04:08:03.700Z,81.46
2022-12-15T04:10:07.779Z,81.95
2022-12-15T04:12:12.614Z,80.37
2022-12-15T04:14:15.896Z,81.34
2022-12-15T04:16:20.275Z,81.73
2022-12-15T04:18:23.867Z,82.23
2022-12-15T04:20:26.288Z,81.64
2022-12-15T04:22:29.603Z,80.70
2022-12-15T04:24:51.949Z,81.46
2022-12-15T04:27:12.989Z,81.14
2022-12-15T04:29:33.736Z,81.11
2022-12-15T04:31:54.620Z,80.68
2022-12-15T04:34:19.898Z,80.75
2022-12-15T04:36:41.230Z,81.39
2022-12-15T04:39:02.156Z,82.69
2022-12-15T04:41:24.804Z,83.22
2022-12-15T04:43:45.778Z,83.48
2022-12-15T04:46:06.847Z,84.08
2022-12-15T04:48:27.808Z,85.24
2022-12-15T04:50:49.065Z,84.78
2022-12-15T04:53:10.764Z,85.24
2022-12-15T04:55:31.874Z,85.72
2022-12-15T04:57:54.182Z,86.25
2022-12-15T05:00:15.329Z,85.93
2022-12-15T05:02:36.438Z,86.42
2022-12-15T05:04:57.390Z,86.71
2022-12-15T05:07:18.443Z,87.11
2022-12-15T05:09:39.507Z,87.66
2022-12-15T05:12:00.367Z,87.66
2022-12-15T05:14:22.766Z,87.74
2022-12-15T05:16:43.906Z,88.01
2022-12-15T05:19:04.854Z,88.57
2022-12-15T05:21:26.493Z,87.67
2022-12-15T05:23:47.641Z,87.28
2022-12-15T05:26:08.610Z,87.77
2022-12-15T05:28:29.573Z,86.71
2022-12-15T05:30:51.897Z,85.69
2022-12-15T05:32:55.472Z,86.46
2022-12-15T05:34:58.857Z,85.39
2022-12-15T05:37:03.980Z,84.75
2022-12-15T05:39:07.499Z,85.07
2022-12-15T05:41:10.841Z,84.93
2022-12-15T05:43:14.150Z,85.28
2022-12-15T05:45:17.599Z,85.28
2022-12-15T05:47:22.573Z,84.62
2022-12-15T05:49:26.425Z,84.87
2022-12-15T05:51:29.772Z,84.46
2022-12-15T05:53:33.614Z,84.32
2022-12-15T05:55:37.098Z,84.04
2022-12-15T05:57:40.407Z,83.68
2022-12-15T05:59:43.832Z,83.42
2022-12-15T06:01:47.232Z,83.27
2022-12-15T06:03:52.091Z,82.83
2022-12-15T06:05:56.788Z,82.58
2022-12-15T06:08:01.174Z,83.08
2022-12-15T06:10:05.237Z,83.51
2022-12-15T06:12:08.689Z,84.13
2022-12-15T06:14:11.998Z,84.05
2022-12-15T06:16:18.073Z,82.85
2022-12-15T06:18:21.426Z,83.37
2022-12-15T06:20:26.123Z,83.11
2022-12-15T06:22:29.927Z,83.15
2022-12-15T06:24:33.252Z,82.52
2022-12-15T06:26:38.093Z,82.41
2022-12-15T06:28:42.034Z,81.33
2022-12-15T06:30:45.328Z,81.03
2022-12-15T06:32:49.916Z,81.33
2022-12-15T06:34:53.438Z,81.20
2022-12-15T06:36:58.234Z,80.87
2022-12-15T06:39:02.881Z,82.05
2022-12-15T06:41:07.714Z,81.16
2022-12-15T06:43:11.054Z,81.32
2022-12-15T06:45:14.442Z,100.00
2022-12-15T06:47:18.372Z,87.49
2022-12-15T06:49:21.881Z,84.52
2022-12-15T06:51:25.751Z,82.08
2022-12-15T06:53:31.143Z,83.27
2022-12-15T06:55:34.804Z,82.24
2022-12-15T06:57:38.886Z,81.69
2022-12-15T06:59:42.223Z,81.97
2022-12-15T07:01:45.774Z,82.08
2022-12-15T07:03:49.652Z,82.94
2022-12-15T07:06:03.409Z,82.41
2022-12-15T07:08:07.092Z,83.29
2022-12-15T07:10:12.354Z,83.83
2022-12-15T07:12:15.922Z,84.59
2022-12-15T07:14:19.226Z,85.02
2022-12-15T07:16:24.645Z,84.45
2022-12-15T07:18:28.194Z,84.80
2022-12-15T07:20:31.755Z,84.23
2022-12-15T07:22:35.308Z,84.85
2022-12-15T07:24:38.723Z,85.12
2022-12-15T07:26:44.430Z,84.65
2022-12-15T07:28:47.755Z,85.37
2022-12-15T07:30:51.115Z,85.05
2022-12-15T07:32:54.444Z,85.12
2022-12-15T07:34:57.768Z,84.86
2022-12-15T07:37:01.015Z,84.59
2022-12-15T07:39:05.364Z,85.08
2022-12-15T07:41:09.380Z,85.04
2022-12-15T07:43:14.005Z,85.44
2022-12-15T07:45:17.543Z,86.69
2022-12-15T07:47:20.960Z,86.97
2022-12-15T07:49:24.258Z,87.48
2022-12-15T07:51:27.711Z,88.04
2022-12-15T07:53:31.640Z,88.44
2022-12-15T07:56:05.078Z,88.68
2022-12-15T07:57:58.705Z,88.39
2022-12-15T08:00:05.428Z,88.62
2022-12-15T08:02:15.404Z,88.47
2022-12-15T08:04:19.541Z,88.49
2022-12-15T08:06:22.982Z,88.08
2022-12-15T08:08:26.315Z,88.72
2022-12-15T08:10:29.904Z,88.89
2022-12-15T08:12:33.314Z,89.49
2022-12-15T08:14:36.968Z,90.27
2022-12-15T08:16:41.925Z,90.70
2022-12-15T08:18:45.417Z,90.79
2022-12-15T08:20:50.309Z,90.83
2022-12-15T08:22:53.902Z,91.28
2022-12-15T08:24:57.213Z,91.57
2022-12-15T08:27:00.577Z,92.17
2022-12-15T08:29:49.008Z,92.48
2022-12-15T08:31:30.697Z,92.74
2022-12-15T08:33:35.830Z,92.29
2022-12-15T08:35:56.463Z,92.17
2022-12-15T08:38:05.448Z,92.58
2022-12-15T08:40:10.177Z,92.84
2022-12-15T08:42:13.564Z,92.63
2022-12-15T08:44:17.360Z,92.98
2022-12-15T08:46:23.233Z,93.15
2022-12-15T08:48:26.786Z,92.88
2022-12-15T08:50:31.883Z,92.80
2022-12-15T08:52:35.647Z,92.54
2022-12-15T08:54:39.049Z,92.61
2022-12-15T08:56:42.424Z,92.68
2022-12-15T08:58:46.669Z,92.82
2022-12-15T09:00:50.035Z,92.46
2022-12-15T09:02:53.402Z,92.10
2022-12-15T09:04:56.732Z,91.95
2022-12-15T09:07:01.922Z,92.26
2022-12-15T09:09:07.521Z,91.97
2022-12-15T09:11:11.148Z,92.92
2022-12-15T09:13:14.554Z,92.98
2022-12-15T09:15:18.116Z,92.97
2022-12-15T09:17:21.481Z,92.57
2022-12-15T09:19:25.262Z,92.70
2022-12-15T09:21:31.019Z,92.56
2022-12-15T09:23:37.249Z,92.26
2022-12-15T09:25:40.630Z,92.39
2022-12-15T09:27:43.997Z,92.51
2022-12-15T09:29:47.235Z,92.37
2022-12-15T09:31:50.640Z,92.07
2022-12-15T09:33:55.644Z,91.97
2022-12-15T09:35:58.981Z,91.54
2022-12-15T09:38:02.308Z,91.66
2022-12-15T09:40:09.900Z,91.58
2022-12-15T09:42:25.605Z,91.61
2022-12-15T09:44:31.428Z,91.80
2022-12-15T09:46:50.335Z,91.63
2022-12-15T09:48:55.092Z,91.91
2022-12-15T09:50:59.247Z,91.85
2022-12-15T09:53:17.723Z,91.59
2022-12-15T09:55:31.078Z,91.53
2022-12-15T09:57:41.513Z,91.01
2022-12-15T09:59:58.751Z,91.02
2022-12-15T10:02:23.780Z,91.66
2022-12-15T10:04:39.435Z,91.58
2022-12-15T10:06:50.789Z,91.70
2022-12-15T10:08:57.073Z,91.11
2022-12-15T10:11:05.371Z,91.75
2022-12-15T10:13:16.009Z,91.87
2022-12-15T10:15:25.608Z,91.70
2022-12-15T10:17:37.494Z,92.11
2022-12-15T10:19:45.434Z,92.10
2022-12-15T10:21:53.341Z,92.61
2022-12-15T10:24:00.226Z,92.33
2022-12-15T10:26:20.191Z,91.80
2022-12-15T10:28:45.281Z,92.33
2022-12-15T10:31:00.243Z,92.53
2022-12-15T10:33:10.325Z,92.45
2022-12-15T10:35:16.921Z,92.11
2022-12-15T10:37:21.868Z,92.00
2022-12-15T10:39:37.230Z,92.06
2022-12-15T10:41:41.960Z,91.87
2022-12-15T10:43:47.185Z,92.04
2022-12-15T10:45:51.216Z,91.62
2022-12-15T10:48:02.379Z,91.79
2022-12-15T10:50:25.034Z,91.51
2022-12-15T10:52:36.659Z,91.99
2022-12-15T10:54:47.129Z,91.11
2022-12-15T10:56:54.919Z,90.83
2022-12-15T10:59:00.366Z,91.23
2022-12-15T11:01:08.386Z,90.28
2022-12-15T11:03:23.302Z,90.14
2022-12-15T11:05:27.779Z,91.33
2022-12-15T11:07:36.506Z,90.69
2022-12-15T11:09:40.942Z,90.10
2022-12-15T11:12:05.600Z,90.40
2022-12-15T11:14:15.704Z,89.95
2022-12-15T11:16:20.326Z,90.44
2022-12-15T11:18:33.555Z,89.75
2022-12-15T11:20:40.957Z,90.00
2022-12-15T11:22:50.378Z,89.83
2022-12-15T11:25:10.412Z,89.42
2022-12-15T11:27:22.100Z,88.85
2022-12-15T11:29:34.453Z,89.39
2022-12-15T11:31:41.457Z,89.16
2022-12-15T11:33:44.871Z,88.80
2022-12-15T11:36:01.843Z,88.65
2022-12-15T11:38:12.703Z,88.38
2022-12-15T11:40:28.327Z,88.84
2022-12-15T11:42:43.729Z,88.65
2022-12-15T11:45:01.552Z,88.68
2022-12-15T11:47:13.182Z,88.00
2022-12-15T11:49:40.950Z,88.06
2022-12-15T11:51:50.808Z,88.85
2022-12-15T11:54:08.984Z,88.32
2022-12-15T11:56:21.558Z,87.63
2022-12-15T11:58:49.950Z,86.98
2022-12-15T12:01:05.786Z,87.83
2022-12-15T12:03:26.314Z,87.94
2022-12-15T12:06:04.026Z,86.35
2022-12-15T12:08:22.021Z,85.41
2022-12-15T12:10:34.252Z,85.74
2022-12-15T12:12:44.907Z,85.92
2022-12-15T12:14:57.414Z,86.97
2022-12-15T12:17:08.142Z,86.74
2022-12-15T12:19:14.414Z,83.15
2022-12-15T12:21:24.224Z,83.00
2022-12-15T12:23:36.561Z,81.10
2022-12-15T12:25:46.873Z,80.35
2022-12-15T12:27:57.097Z,79.19
2022-12-15T12:30:05.263Z,78.86
2022-12-15T12:32:18.025Z,76.85
2022-12-15T12:34:27.465Z,76.34
2022-12-15T12:36:30.741Z,75.80
2022-12-15T12:38:39.235Z,76.96
2022-12-15T12:40:52.807Z,74.72
2022-12-15T12:42:58.126Z,74.48
2022-12-15T12:45:03.076Z,73.62
2022-12-15T12:47:15.752Z,73.01
2022-12-15T12:49:26.989Z,72.85
2022-12-15T12:51:34.765Z,71.66
2022-12-15T12:53:38.045Z,72.21
2022-12-15T12:55:43.470Z,72.13
2022-12-15T12:57:47.445Z,71.96
2022-12-15T12:59:59.495Z,72.78
2022-12-15T13:02:37.993Z,71.84
2022-12-15T13:04:44.959Z,71.92
2022-12-15T13:07:03.075Z,71.34
2022-12-15T13:09:22.946Z,68.37
2022-12-15T13:12:15.085Z,69.88
2022-12-15T13:14:35.907Z,68.71
2022-12-15T13:16:40.429Z,69.32
2022-12-15T13:19:06.644Z,67.84
2022-12-15T13:21:53.260Z,65.56
2022-12-15T13:24:00.150Z,64.58
2022-12-15T13:26:14.040Z,65.35
2022-12-15T13:28:31.190Z,65.56
2022-12-15T13:30:34.909Z,66.21
2022-12-15T13:32:40.111Z,65.39
2022-12-15T13:34:45.092Z,66.92
2022-12-15T13:37:01.230Z,68.05
2022-12-15T13:39:26.271Z,69.32
2022-12-15T13:41:29.641Z,68.03
2022-12-15T13:43:43.549Z,69.09
2022-12-15T13:45:53.383Z,67.71
2022-12-15T13:47:57.458Z,67.28
2022-12-15T13:50:07.755Z,66.91
2022-12-15T13:52:18.257Z,66.07
2022-12-15T13:54:24.958Z,66.92
2022-12-15T13:56:55.784Z,69.05
2022-12-15T13:59:05.132Z,68.95
2022-12-15T14:01:21.269Z,68.84
2022-12-15T14:03:25.751Z,69.57
2022-12-15T14:05:29.377Z,70.97
2022-12-15T14:07:34.805Z,71.21
2022-12-15T14:09:43.015Z,71.40
2022-12-15T14:11:55.276Z,71.36
2022-12-15T14:14:00.665Z,71.29
2022-12-15T14:16:08.346Z,72.46
2022-12-15T14:18:25.490Z,72.16
2022-12-15T14:20:31.908Z,72.10
2022-12-15T14:22:36.794Z,71.41
2022-12-15T14:24:45.827Z,71.85
2022-12-15T14:26:53.010Z,72.08
2022-12-15T14:29:02.210Z,72.98
2022-12-15T14:31:12.561Z,73.14
2022-12-15T14:33:18.910Z,73.64
2022-12-15T14:35:27.238Z,72.61
2022-12-15T14:37:31.025Z,73.70
2022-12-15T14:39:41.709Z,74.33
2022-12-15T14:41:48.908Z,74.21
2022-12-15T14:46:23.882Z,73.92
2022-12-15T14:48:41.087Z,74.40
2022-12-15T14:50:47.892Z,74.66
2022-12-15T14:52:56.575Z,74.45
2022-12-15T14:55:03.430Z,75.10
2022-12-15T14:57:15.899Z,75.01
2022-12-15T14:59:21.245Z,74.86
2022-12-15T15:01:26.745Z,75.17
2022-12-15T15:03:37.118Z,76.50
2022-12-15T15:05:42.939Z,78.38
2022-12-15T15:07:46.991Z,77.19
2022-12-15T15:09:51.227Z,77.44
2022-12-15T15:12:01.135Z,77.17
2022-12-15T15:14:09.088Z,77.46
2022-12-15T15:16:17.710Z,77.56
2022-12-15T15:18:27.422Z,77.88
2022-12-15T15:20:34.359Z,78.09
2022-12-15T15:22:41.412Z,77.66
2022-12-15T15:24:52.624Z,77.74
2022-12-15T15:27:27.559Z,78.15
2022-12-15T15:29:39.306Z,77.64
2022-12-15T15:31:42.759Z,77.42
2022-12-15T15:33:46.401Z,77.81
2022-12-15T15:35:53.050Z,78.36
2022-12-15T15:38:02.551Z,77.84
2022-12-15T15:40:11.742Z,78.31
2022-12-15T15:42:16.591Z,78.10
2022-12-15T15:44:19.925Z,78.17
2022-12-15T15:46:26.556Z,78.02
2022-12-15T15:48:33.086Z,78.86
2022-12-15T15:50:37.813Z,79.11
2022-12-15T15:52:41.801Z,79.73
2022-12-15T15:54:45.802Z,78.75
2022-12-15T15:56:49.165Z,79.86
2022-12-15T15:58:54.252Z,80.28
2022-12-15T16:00:57.633Z,79.60
2022-12-15T16:03:01.227Z,80.83
2022-12-15T16:05:05.070Z,80.42
2022-12-15T16:07:16.294Z,81.16
2022-12-15T16:09:19.888Z,80.95
2022-12-15T16:11:23.744Z,81.01
2022-12-15T16:13:27.911Z,80.82
2022-12-15T16:15:32.756Z,80.90
2022-12-15T16:17:36.201Z,81.78
2022-12-15T16:19:40.037Z,81.81
2022-12-15T16:21:43.896Z,81.93
2022-12-15T16:23:49.851Z,81.50
2022-12-15T16:25:55.608Z,82.36
2022-12-15T16:27:59.248Z,83.00
2022-12-15T16:30:02.616Z,82.18
2022-12-15T16:32:09.777Z,82.45
2022-12-15T16:34:13.353Z,82.38
2022-12-15T16:36:16.613Z,82.63
2022-12-15T16:38:25.464Z,82.32
2022-12-15T16:40:28.908Z,82.74
2022-12-15T16:42:32.336Z,82.36
2022-12-15T16:44:35.663Z,82.52
2022-12-15T16:46:39.081Z,82.84
2022-12-15T16:48:44.304Z,82.14
2022-12-15T16:50:52.197Z,82.34
2022-12-15T16:52:56.206Z,82.48
2022-12-15T16:54:59.723Z,83.04
2022-12-15T16:57:03.800Z,82.60
2022-12-15T16:59:32.077Z,82.32
2022-12-15T17:01:35.459Z,82.44
2022-12-15T17:03:44.542Z,83.32
2022-12-15T17:05:50.470Z,83.36
2022-12-15T17:07:57.556Z,82.44
2022-12-15T17:10:01.009Z,82.49
2022-12-15T17:12:04.673Z,82.12
2022-12-15T17:14:08.568Z,81.27
2022-12-15T17:16:14.781Z,81.42
2022-12-15T17:18:18.210Z,80.63
2022-12-15T17:20:29.649Z,81.13
2022-12-15T17:22:34.451Z,81.37
2022-12-15T17:24:37.785Z,81.67
2022-12-15T17:26:43.260Z,81.15
2022-12-15T17:28:46.671Z,81.75
2022-12-15T17:30:51.411Z,81.71
2022-12-15T17:32:54.840Z,80.33
2022-12-15T17:34:58.320Z,80.94
2022-12-15T17:37:05.426Z,80.57
2022-12-15T17:39:11.701Z,79.98
2022-12-15T17:41:35.034Z,80.18
2022-12-15T17:43:39.316Z,80.53
2022-12-15T17:45:43.273Z,80.30
2022-12-15T17:47:47.089Z,81.63
2022-12-15T17:49:50.390Z,81.11
2022-12-15T17:51:53.713Z,81.59
2022-12-15T17:53:59.898Z,80.82
2022-12-15T17:56:03.313Z,80.70
2022-12-15T17:58:16.745Z,80.16
2022-12-15T18:00:23.833Z,80.59
2022-12-15T18:02:27.443Z,79.72
2022-12-15T18:04:31.387Z,79.28
2022-12-15T18:06:34.771Z,79.52
2022-12-15T18:08:38.314Z,79.71
2022-12-15T18:10:43.691Z,80.09
2022-12-15T18:12:46.996Z,79.61
2022-12-15T18:14:50.543Z,78.54
2022-12-15T18:16:53.839Z,78.74
2022-12-15T18:18:57.437Z,80.89
2022-12-15T18:21:08.594Z,81.36
2022-12-15T18:23:15.924Z,81.19
2022-12-15T18:25:23.277Z,82.04
2022-12-15T18:27:30.346Z,82.95
2022-12-15T18:29:33.708Z,83.60
2022-12-15T18:31:37.062Z,82.94
2022-12-15T18:33:40.569Z,82.42
2022-12-15T18:35:46.711Z,82.23
2022-12-15T18:37:51.838Z,81.44
2022-12-15T18:39:58.236Z,81.00
2022-12-15T18:42:07.066Z,80.85
2022-12-15T18:44:19.310Z,80.99
2022-12-15T18:46:22.701Z,81.01
2022-12-15T18:48:28.276Z,80.89
2022-12-15T18:50:31.719Z,80.51
2022-12-15T18:52:36.762Z,80.55
2022-12-15T18:54:40.788Z,79.98
2022-12-15T18:56:44.162Z,79.84
2022-12-15T18:58:47.612Z,81.01
2022-12-15T19:00:53.162Z,79.49
2022-12-15T19:03:00.096Z,80.25
2022-12-15T19:05:03.605Z,79.82
2022-12-15T19:07:07.578Z,79.74
2022-12-15T19:09:15.647Z,79.63
2022-12-15T19:11:31.062Z,79.50
2022-12-15T19:13:37.670Z,80.04
2022-12-15T19:15:41.038Z,79.57
2022-12-15T19:18:03.427Z,79.18
2022-12-15T19:20:32.084Z,78.97
2022-12-15T19:22:35.403Z,79.28
2022-12-15T19:24:56.690Z,78.90
2022-12-15T19:27:00.152Z,79.62
2022-12-15T19:29:11.526Z,78.72
2022-12-15T19:31:14.897Z,78.19
2022-12-15T19:33:20.560Z,79.32
2022-12-15T19:35:24.740Z,78.50
2022-12-15T19:37:30.915Z,79.48
2022-12-15T19:39:37.011Z,79.56
2022-12-15T19:41:40.402Z,79.25
2022-12-15T19:43:44.512Z,79.45
2022-12-15T19:45:48.206Z,78.91
2022-12-15T19:47:51.954Z,79.76
2022-12-15T19:49:56.663Z,79.98
2022-12-15T19:52:00.010Z,79.61
2022-12-15T19:54:03.911Z,80.27
2022-12-15T19:56:08.626Z,80.36
2022-12-15T19:58:28.490Z,79.80
2022-12-15T20:00:32.065Z,79.08
2022-12-15T20:02:35.479Z,79.54
2022-12-15T20:04:38.931Z,80.37
2022-12-15T20:06:43.911Z,80.38
2022-12-15T20:08:50.485Z,80.52
2022-12-15T20:10:55.473Z,80.70
2022-12-15T20:12:59.546Z,80.39
2022-12-15T20:15:02.934Z,80.70
2022-12-15T20:17:06.404Z,80.68
2022-12-15T20:19:09.765Z,80.00
2022-12-15T20:21:17.919Z,80.91
2022-12-15T20:23:27.365Z,80.15
2022-12-15T20:25:36.017Z,79.88
2022-12-15T20:27:39.352Z,79.35
2022-12-15T20:29:43.182Z,79.52
2022-12-15T20:31:46.597Z,79.68
2022-12-15T20:33:50.454Z,80.40
2022-12-15T20:35:55.087Z,79.59
2022-12-15T20:37:58.669Z,80.51
2022-12-15T20:40:03.345Z,80.98
2022-12-15T20:42:07.245Z,81.29
2022-12-15T20:44:13.694Z,81.49
2022-12-15T20:46:20.716Z,81.64
2022-12-15T20:48:25.499Z,81.53
2022-12-15T20:50:34.937Z,81.81
2022-12-15T20:52:38.302Z,80.70
2022-12-15T20:54:42.830Z,80.07
2022-12-15T20:56:48.726Z,80.45
2022-12-15T20:58:52.208Z,80.70
2022-12-15T21:00:55.707Z,80.56
2022-12-15T21:02:59.380Z,79.53
2022-12-15T21:05:03.476Z,79.35
2022-12-15T21:07:07.175Z,79.97
2022-12-15T21:09:12.118Z,80.56
2022-12-15T21:11:18.474Z,80.39
2022-12-15T21:13:27.363Z,79.86
2022-12-15T21:15:30.716Z,79.55
2022-12-15T21:17:38.663Z,78.99
2022-12-15T21:19:45.811Z,79.14
2022-12-15T21:21:51.891Z,78.67
2022-12-15T21:23:56.021Z,78.49
2022-12-15T21:26:00.425Z,77.85
2022-12-15T21:28:03.698Z,77.69
2022-12-15T21:30:15.978Z,77.96
2022-12-15T21:32:19.360Z,79.04
2022-12-15T21:34:22.681Z,78.11
2022-12-15T21:36:26.043Z,78.31
2022-12-15T21:38:33.250Z,78.17
2022-12-15T21:40:36.804Z,77.74
2022-12-15T21:42:40.132Z,78.97
2022-12-15T21:44:43.577Z,79.14
2022-12-15T21:46:48.721Z,79.34
2022-12-15T21:49:09.840Z,79.28
2022-12-15T21:51:15.479Z,79.03
2022-12-15T21:53:18.948Z,78.61
2022-12-15T21:55:26.050Z,78.63
2022-12-15T21:57:29.516Z,77.72
2022-12-15T21:59:34.031Z,78.19
2022-12-15T22:01:37.430Z,76.97
2022-12-15T22:03:44.865Z,77.21
2022-12-15T22:05:48.170Z,77.48
2022-12-15T22:07:52.102Z,77.34
2022-12-15T22:09:55.411Z,76.77
2022-12-15T22:11:58.968Z,77.30
2022-12-15T22:14:04.502Z,77.68
2022-12-15T22:16:09.795Z,77.95
2022-12-15T22:18:19.540Z,78.14
2022-12-15T22:20:25.632Z,78.00
2022-12-15T22:22:31.964Z,77.85
2022-12-15T22:24:35.481Z,78.07
2022-12-15T22:26:40.660Z,78.57
2022-12-15T22:28:44.116Z,78.13
2022-12-15T22:30:47.526Z,78.33
2022-12-15T22:32:51.216Z,78.06
2022-12-15T22:34:54.563Z,78.57
2022-12-15T22:36:59.202Z,78.12
2022-12-15T22:39:07.503Z,77.31
2022-12-15T22:41:19.322Z,77.39
2022-12-15T22:43:26.838Z,77.46
2022-12-15T22:45:30.198Z,77.24
2022-12-15T22:47:37.210Z,77.10
2022-12-15T22:49:42.244Z,77.73
2022-12-15T22:51:46.056Z,78.08
2022-12-15T22:53:50.798Z,78.00
2022-12-15T22:55:55.251Z,77.28
2022-12-15T22:58:02.983Z,77.09
2022-12-15T23:00:09.137Z,77.26
2022-12-15T23:02:12.787Z,76.79
2022-12-15T23:04:16.202Z,77.77
2022-12-15T23:06:20.275Z,76.94
2022-12-15T23:08:23.583Z,76.90
2022-12-15T23:10:45.593Z,76.45
2022-12-15T23:12:54.160Z,76.21
2022-12-15T23:15:19.871Z,76.65
2022-12-15T23:17:24.872Z,76.60
2022-12-15T23:19:28.117Z,75.80
2022-12-15T23:21:32.282Z,76.01
2022-12-15T23:23:35.928Z,76.20
2022-12-15T23:25:40.922Z,75.85
2022-12-15T23:27:44.580Z,76.64
2022-12-15T23:29:47.823Z,76.64
2022-12-15T23:31:51.149Z,76.67
2022-12-15T23:33:55.319Z,76.98
2022-12-15T23:36:01.038Z,76.79
2022-12-15T23:38:04.679Z,77.35
2022-12-15T23:40:09.164Z,77.38
2022-12-15T23:42:13.861Z,77.58
2022-12-15T23:44:17.348Z,77.10
2022-12-15T23:46:21.427Z,77.26
2022-12-15T23:48:26.020Z,77.31
2022-12-15T23:50:29.687Z,77.54
2022-12-15T23:52:33.055Z,77.41
2022-12-15T23:54:36.377Z,76.81
2022-12-15T23:56:40.364Z,77.53
2022-12-15T23:58:46.323Z,77.91
